createdAt,value
2017-12-16T00:00:14.615Z,8.03
2017-12-16T00:02:42.805Z,9.93
2017-12-16T00:05:11.759Z,12.87
2017-12-16T00:07:39.931Z,10.30
2017-12-16T00:10:08.101Z,12.77
2017-12-16T00:12:36.304Z,10.13
2017-12-16T00:15:04.503Z,10.10
2017-12-16T00:17:33.434Z,10.50
2017-12-16T00:20:01.610Z,10.63
2017-12-16T00:22:29.837Z,10.63
2017-12-16T00:24:58.823Z,12.40
2017-12-16T00:27:27.038Z,11.30
2017-12-16T00:29:55.226Z,10.73
2017-12-16T00:32:23.434Z,10.13
2017-12-16T00:34:51.630Z,12.80
2017-12-16T00:37:19.812Z,10.23
2017-12-16T00:39:48.820Z,9.57
2017-12-16T00:42:17.797Z,12.63
2017-12-16T00:44:46.750Z,9.33
2017-12-16T00:47:14.958Z,13.27
2017-12-16T00:49:43.174Z,12.13
2017-12-16T00:52:11.389Z,11.87
2017-12-16T00:54:39.639Z,9.30
2017-12-16T00:57:07.826Z,13.60
2017-12-16T00:59:36.003Z,11.03
2017-12-16T01:02:04.275Z,11.03
2017-12-16T01:04:32.456Z,15.80
2017-12-16T01:07:00.626Z,12.77
2017-12-16T01:09:28.809Z,14.43
2017-12-16T01:11:56.995Z,15.07
2017-12-16T01:14:25.155Z,12.77
2017-12-16T01:16:53.332Z,11.03
2017-12-16T01:19:21.507Z,12.27
2017-12-16T01:21:49.696Z,11.83
2017-12-16T01:24:17.932Z,12.17
2017-12-16T01:26:46.118Z,10.77
2017-12-16T01:29:14.299Z,8.80
2017-12-16T01:31:42.472Z,13.83
2017-12-16T01:37:35.906Z,14.57
2017-12-16T01:40:04.896Z,14.23
2017-12-16T01:42:33.827Z,13.80
2017-12-16T01:45:02.010Z,14.10
2017-12-16T01:47:30.256Z,12.00
2017-12-16T01:49:58.489Z,11.47
2017-12-16T01:52:26.707Z,11.83
2017-12-16T01:54:54.881Z,11.57
2017-12-16T01:57:23.865Z,12.07
2017-12-16T01:59:52.809Z,14.93
2017-12-16T02:02:21.011Z,15.50
2017-12-16T02:04:49.191Z,13.40
2017-12-16T02:07:17.405Z,17.50
2017-12-16T02:09:45.636Z,16.33
2017-12-16T02:12:13.824Z,16.70
2017-12-16T02:14:42.017Z,16.83
2017-12-16T02:17:11.033Z,16.33
2017-12-16T02:19:39.255Z,16.70
2017-12-16T02:22:07.543Z,16.43
2017-12-16T02:24:35.750Z,17.83
2017-12-16T02:27:03.957Z,13.10
2017-12-16T02:29:32.177Z,16.63
2017-12-16T02:32:01.182Z,16.03
2017-12-16T02:34:30.126Z,17.97
2017-12-16T02:36:58.341Z,16.03
2017-12-16T02:39:27.306Z,24.70
2017-12-16T02:41:55.481Z,19.33
2017-12-16T02:44:23.660Z,18.50
2017-12-16T02:46:51.875Z,21.90
2017-12-16T02:49:20.059Z,21.40
2017-12-16T02:51:48.242Z,18.83
2017-12-16T02:54:16.421Z,20.77
2017-12-16T02:56:44.616Z,19.57
2017-12-16T02:59:13.626Z,19.10
2017-12-16T03:01:41.834Z,21.53
2017-12-16T03:04:10.276Z,21.40
2017-12-16T03:06:38.484Z,19.30
2017-12-16T03:09:07.450Z,19.47
2017-12-16T03:11:35.656Z,20.30
2017-12-16T03:14:04.608Z,19.70
2017-12-16T03:16:32.805Z,22.37
2017-12-16T03:19:00.994Z,23.20
2017-12-16T03:21:29.942Z,21.53
2017-12-16T03:23:58.131Z,20.60
2017-12-16T03:26:26.411Z,26.20
2017-12-16T04:50:52.295Z,34.73
2017-12-16T04:53:20.482Z,42.43
2017-12-16T04:55:48.670Z,41.53
2017-12-16T04:58:17.632Z,30.83
2017-12-16T05:00:46.655Z,32.47
2017-12-16T05:03:14.843Z,31.07
2017-12-16T05:05:43.795Z,27.90
2017-12-16T05:08:11.970Z,32.60
2017-12-16T05:10:40.186Z,36.00
2017-12-16T05:13:09.194Z,30.43
2017-12-16T05:15:37.407Z,28.87
2017-12-16T05:18:06.369Z,28.77
2017-12-16T05:20:34.550Z,27.67
2017-12-16T05:23:02.816Z,28.73
2017-12-16T05:25:30.985Z,30.17
2017-12-16T05:27:59.170Z,27.20
2017-12-16T05:30:27.419Z,27.00
2017-12-16T05:32:56.392Z,27.57
2017-12-16T05:35:24.591Z,26.10
2017-12-16T05:37:53.555Z,22.30
2017-12-16T05:40:21.740Z,23.07
2017-12-16T05:42:49.936Z,27.00
2017-12-16T05:45:18.871Z,21.83
2017-12-16T05:47:47.065Z,21.00
2017-12-16T05:50:15.291Z,23.20
2017-12-16T05:52:43.502Z,23.23
2017-12-16T05:55:11.680Z,24.33
2017-12-16T05:57:39.864Z,22.40
2017-12-16T06:00:08.080Z,21.73
2017-12-16T06:02:37.049Z,20.80
2017-12-16T06:05:05.243Z,25.53
2017-12-16T06:07:34.180Z,22.43
2017-12-16T06:10:02.351Z,20.53
2017-12-16T06:12:30.542Z,24.27
2017-12-16T06:14:58.734Z,21.03
2017-12-16T06:17:26.941Z,23.07
2017-12-16T06:19:55.890Z,22.93
2017-12-16T06:22:24.090Z,24.03
2017-12-16T06:24:52.278Z,20.33
2017-12-16T06:27:21.238Z,22.60
2017-12-16T06:29:49.427Z,23.30
2017-12-16T06:32:17.615Z,21.33
2017-12-16T06:34:46.563Z,23.97
2017-12-16T06:37:14.786Z,21.40
2017-12-16T06:39:43.741Z,20.53
2017-12-16T06:42:11.942Z,22.60
2017-12-16T06:44:40.139Z,21.60
2017-12-16T06:47:09.073Z,21.40
2017-12-16T06:49:37.247Z,24.53
2017-12-16T06:52:05.482Z,25.67
2017-12-16T06:54:34.432Z,18.70
2017-12-16T06:57:02.650Z,21.63
2017-12-16T06:59:31.606Z,22.80
2017-12-16T07:01:59.770Z,19.67
2017-12-16T07:04:27.967Z,20.60
2017-12-16T07:06:56.130Z,24.73
2017-12-16T07:09:24.295Z,21.30
2017-12-16T07:11:52.478Z,21.27
2017-12-16T07:14:20.673Z,23.23
2017-12-16T07:16:49.611Z,18.20
2017-12-16T07:19:17.785Z,20.10
2017-12-16T07:21:45.964Z,16.80
2017-12-16T07:24:14.136Z,20.80
2017-12-16T07:26:42.298Z,18.23
2017-12-16T07:29:10.472Z,19.83
2017-12-16T07:31:38.638Z,26.87
2017-12-16T07:34:06.828Z,18.90
2017-12-16T07:36:35.012Z,26.40
2017-12-16T07:39:03.226Z,28.40
2017-12-16T07:41:31.395Z,32.10
2017-12-16T07:43:59.571Z,24.20
2017-12-16T07:46:27.746Z,22.63
2017-12-16T07:48:55.919Z,20.10
2017-12-16T07:51:24.120Z,19.90
2017-12-16T07:53:53.096Z,19.00
2017-12-16T07:56:21.273Z,17.03
2017-12-16T07:58:49.496Z,21.70
2017-12-16T08:01:17.664Z,20.33
2017-12-16T08:03:45.831Z,20.57
2017-12-16T08:06:14.048Z,23.23
2017-12-16T08:08:42.194Z,21.43
2017-12-16T08:11:10.357Z,19.90
2017-12-16T08:13:38.518Z,21.70
2017-12-16T08:16:07.460Z,18.37
2017-12-16T08:18:35.633Z,18.60
2017-12-16T08:21:03.819Z,20.73
2017-12-16T08:23:32.030Z,19.90
2017-12-16T08:26:00.974Z,21.70
2017-12-16T08:28:29.162Z,23.90
2017-12-16T08:30:57.360Z,20.20
2017-12-16T08:33:26.311Z,22.60
2017-12-16T08:35:54.483Z,26.47
2017-12-16T08:38:22.661Z,23.43
2017-12-16T08:40:50.829Z,20.13
2017-12-16T08:43:19.009Z,19.40
2017-12-16T08:45:47.216Z,20.43
2017-12-16T08:48:15.398Z,26.57
2017-12-16T08:50:44.340Z,20.80
2017-12-16T08:53:12.513Z,21.47
2017-12-16T08:55:40.690Z,23.60
2017-12-16T08:58:08.870Z,27.17
2017-12-16T09:00:37.036Z,23.97
2017-12-16T09:03:05.216Z,21.47
2017-12-16T09:05:33.396Z,22.70
2017-12-16T09:08:01.574Z,22.13
2017-12-16T09:10:29.763Z,24.10
2017-12-16T09:12:57.947Z,18.93
2017-12-16T09:15:26.122Z,21.30
2017-12-16T09:17:54.298Z,23.70
2017-12-16T09:20:22.507Z,22.50
2017-12-16T09:22:50.680Z,23.00
2017-12-16T09:25:19.611Z,23.63
2017-12-16T09:27:47.866Z,22.37
2017-12-16T09:30:16.186Z,24.37
2017-12-16T09:32:44.363Z,22.40
2017-12-16T09:35:12.560Z,20.13
2017-12-16T09:37:41.516Z,22.83
2017-12-16T09:40:09.710Z,21.57
2017-12-16T09:42:38.035Z,25.10
2017-12-16T09:45:06.265Z,26.40
2017-12-16T09:47:34.456Z,23.00
2017-12-16T09:50:03.452Z,24.27
2017-12-16T09:52:32.402Z,21.57
2017-12-16T09:55:00.578Z,23.50
2017-12-16T09:57:28.781Z,21.77
2017-12-16T09:59:57.011Z,22.83
2017-12-16T10:02:25.198Z,21.23
2017-12-16T10:04:53.397Z,24.70
2017-12-16T10:07:21.564Z,21.23
2017-12-16T10:09:49.738Z,22.13
2017-12-16T10:12:17.910Z,22.10
2017-12-16T10:14:46.146Z,23.93
2017-12-16T10:17:14.321Z,29.77
2017-12-16T10:19:42.492Z,41.67
2017-12-16T10:22:10.707Z,29.27
2017-12-16T10:24:38.884Z,22.33
2017-12-16T10:27:07.066Z,21.60
2017-12-16T10:29:35.309Z,19.23
2017-12-16T10:32:03.493Z,19.03
2017-12-16T10:34:31.670Z,16.57
2017-12-16T10:36:59.846Z,19.00
2017-12-16T10:39:28.032Z,17.23
2017-12-16T10:41:57.004Z,16.80
2017-12-16T10:44:25.181Z,14.47
2017-12-16T10:46:53.362Z,15.63
2017-12-16T10:49:21.580Z,15.57
2017-12-16T10:51:50.530Z,15.00
2017-12-16T10:54:18.832Z,14.80
2017-12-16T10:56:47.006Z,12.90
2017-12-16T10:59:15.193Z,14.27
2017-12-16T11:01:43.377Z,13.00
2017-12-16T11:04:12.522Z,13.87
2017-12-16T11:06:40.747Z,13.30
2017-12-16T11:09:09.710Z,13.67
2017-12-16T11:11:37.894Z,13.00
2017-12-16T11:14:06.210Z,12.10
2017-12-16T11:16:35.186Z,11.93
2017-12-16T11:19:04.150Z,14.00
2017-12-16T11:21:32.327Z,13.80
2017-12-16T11:24:00.499Z,12.10
2017-12-16T11:26:28.730Z,15.20
2017-12-16T11:28:56.946Z,11.63
2017-12-16T11:31:25.126Z,14.00
2017-12-16T11:33:53.306Z,12.67
2017-12-16T11:36:21.864Z,13.07
2017-12-16T11:38:50.049Z,12.43
2017-12-16T11:41:18.223Z,13.50
2017-12-16T11:43:46.398Z,13.57
2017-12-16T11:46:14.617Z,11.50
2017-12-16T11:48:43.568Z,12.80
2017-12-16T11:51:11.751Z,12.93
2017-12-16T11:53:39.939Z,13.53
2017-12-16T11:56:08.871Z,13.37
2017-12-16T11:58:37.049Z,13.40
2017-12-16T12:01:05.266Z,13.20
2017-12-16T12:03:33.429Z,12.27
2017-12-16T12:06:05.276Z,13.60
2017-12-16T12:08:36.058Z,14.43
2017-12-16T12:11:04.234Z,13.47
2017-12-16T12:13:32.418Z,13.53
2017-12-16T12:16:12.393Z,14.30
2017-12-16T13:40:39.025Z,6.43
2017-12-16T13:43:07.207Z,11.50
2017-12-16T13:45:35.447Z,8.10
2017-12-16T13:48:03.616Z,7.30
2017-12-16T13:50:32.555Z,11.37
2017-12-16T13:53:00.738Z,8.40
2017-12-16T13:55:28.911Z,6.70
2017-12-16T13:57:57.127Z,7.80
2017-12-16T14:00:26.057Z,8.90
2017-12-16T14:02:54.223Z,9.40
2017-12-16T14:05:22.379Z,10.13
2017-12-16T14:07:50.539Z,8.03
2017-12-16T14:10:19.477Z,15.50
2017-12-16T14:12:47.638Z,12.77
2017-12-16T14:15:15.913Z,6.67
2017-12-16T14:17:44.065Z,6.10
2017-12-16T14:20:13.036Z,11.37
2017-12-16T14:22:41.998Z,14.90
2017-12-16T14:25:10.207Z,8.80
2017-12-16T14:27:39.162Z,9.40
2017-12-16T14:30:07.335Z,10.93
2017-12-16T14:32:35.498Z,9.20
2017-12-16T14:35:03.667Z,12.57
2017-12-16T14:37:31.836Z,14.03
2017-12-16T14:40:00.018Z,11.33
2017-12-16T14:42:28.206Z,13.70
2017-12-16T14:44:56.378Z,11.10
2017-12-16T14:47:24.622Z,15.73
2017-12-16T14:49:52.811Z,15.77
2017-12-16T14:52:20.996Z,15.47
2017-12-16T14:54:49.202Z,17.67
2017-12-16T14:57:17.414Z,10.53
2017-12-16T14:59:46.400Z,10.03
2017-12-16T15:02:14.555Z,10.90
2017-12-16T15:04:42.741Z,10.40
2017-12-16T15:07:11.714Z,9.77
2017-12-16T15:09:39.884Z,10.70
2017-12-16T15:12:08.064Z,12.40
2017-12-16T15:14:36.230Z,10.47
2017-12-16T15:17:04.422Z,10.27
2017-12-16T15:19:32.611Z,10.60
2017-12-16T15:22:01.651Z,10.87
2017-12-16T15:24:29.889Z,10.60
2017-12-16T15:26:58.814Z,11.57
2017-12-16T15:29:26.993Z,11.03
2017-12-16T15:31:55.173Z,10.73
2017-12-16T15:34:23.354Z,11.13
2017-12-16T15:36:51.536Z,12.20
2017-12-16T15:39:19.751Z,11.00
2017-12-16T15:41:48.699Z,14.47
2017-12-16T15:44:16.905Z,29.37
2017-12-16T15:46:45.872Z,28.70
2017-12-16T15:49:14.077Z,29.43
2017-12-16T15:51:43.020Z,26.27
2017-12-16T15:54:11.263Z,27.93
2017-12-16T15:56:39.436Z,14.80
2017-12-16T15:59:07.660Z,22.30
2017-12-16T16:01:36.699Z,24.47
2017-12-16T16:04:05.654Z,23.17
2017-12-16T16:06:33.855Z,15.53
2017-12-16T16:09:02.089Z,14.53
2017-12-16T16:11:30.280Z,13.70
2017-12-16T16:13:58.462Z,15.07
2017-12-16T16:16:26.647Z,14.93
2017-12-16T16:18:54.820Z,12.70
2017-12-16T16:21:23.024Z,12.90
2017-12-16T16:23:51.989Z,13.33
2017-12-16T17:48:17.841Z,48.53
2017-12-16T17:50:46.012Z,46.27
2017-12-16T17:53:14.190Z,35.43
2017-12-16T17:55:42.431Z,26.00
2017-12-16T17:58:10.637Z,36.40
2017-12-16T18:00:38.833Z,40.27
2017-12-16T18:03:07.799Z,31.37
2017-12-16T18:05:35.998Z,26.37
2017-12-16T18:08:05.005Z,23.93
2017-12-16T18:10:33.947Z,21.20
2017-12-16T18:13:02.143Z,23.10
2017-12-16T18:15:30.641Z,19.07
2017-12-16T18:17:59.610Z,20.80
2017-12-16T18:20:27.814Z,18.20
2017-12-16T18:22:56.786Z,21.60
2017-12-16T18:25:24.990Z,18.50
2017-12-16T18:27:53.217Z,15.17
2017-12-16T18:30:21.395Z,15.37
2017-12-16T18:32:49.594Z,17.93
2017-12-16T18:35:18.592Z,21.60
2017-12-16T18:37:47.630Z,16.17
2017-12-16T18:40:15.815Z,20.23
2017-12-16T18:42:44.012Z,16.27
2017-12-16T18:45:12.194Z,17.73
2017-12-16T18:47:40.391Z,20.47
2017-12-16T18:50:09.401Z,16.57
2017-12-16T18:52:37.581Z,16.70
2017-12-16T18:55:05.784Z,20.50
2017-12-16T18:57:34.007Z,27.40
2017-12-16T19:00:02.938Z,32.80
2017-12-16T19:02:31.131Z,18.23
2017-12-16T19:04:59.310Z,45.40
2017-12-16T19:07:27.484Z,58.37
2017-12-16T19:09:55.664Z,39.00
2017-12-16T19:12:23.859Z,32.47
2017-12-16T19:14:52.031Z,29.43
2017-12-16T19:17:20.226Z,27.03
2017-12-16T19:19:49.230Z,27.63
2017-12-16T19:22:17.402Z,26.33
2017-12-16T19:24:46.426Z,22.97
2017-12-16T19:27:14.634Z,30.10
2017-12-16T19:29:42.842Z,42.40
2017-12-16T19:32:11.804Z,107.30
2017-12-16T19:34:39.981Z,42.90
2017-12-16T19:37:08.183Z,39.60
2017-12-16T19:39:37.142Z,35.83
2017-12-16T19:42:05.339Z,27.30
2017-12-16T19:44:33.571Z,29.10
2017-12-16T19:47:01.780Z,42.87
2017-12-16T19:49:29.963Z,32.73
2017-12-16T19:51:58.144Z,29.93
2017-12-16T19:54:27.099Z,29.73
2017-12-16T19:56:55.293Z,24.87
2017-12-16T19:59:23.476Z,24.13
2017-12-16T20:01:51.655Z,25.40
2017-12-16T20:04:19.851Z,29.90
2017-12-16T20:06:48.787Z,27.87
2017-12-16T20:09:16.973Z,26.87
2017-12-16T20:11:45.158Z,29.10
2017-12-16T20:14:13.341Z,47.73
2017-12-16T20:16:42.473Z,45.93
2017-12-16T20:19:10.638Z,31.30
2017-12-16T20:21:38.872Z,25.73
2017-12-16T20:24:07.062Z,32.07
2017-12-16T20:26:35.270Z,44.53
2017-12-16T20:29:03.464Z,32.73
2017-12-16T20:31:32.412Z,44.17
2017-12-16T20:34:00.629Z,60.30
2017-12-16T20:36:28.878Z,53.27
2017-12-16T20:38:57.059Z,49.60
2017-12-16T20:41:25.241Z,39.77
2017-12-16T20:43:53.500Z,33.83
2017-12-16T20:46:21.704Z,31.30
2017-12-16T20:48:49.900Z,29.20
2017-12-16T20:51:18.861Z,23.70
2017-12-16T20:53:47.070Z,29.33
2017-12-16T20:56:16.131Z,27.30
2017-12-16T20:58:44.350Z,28.77
2017-12-16T21:01:12.709Z,30.23
2017-12-16T21:03:41.711Z,33.20
2017-12-16T21:06:10.799Z,30.87
2017-12-16T21:08:39.118Z,27.50
2017-12-16T21:11:07.345Z,24.43
2017-12-16T21:13:36.302Z,26.43
2017-12-16T21:16:04.538Z,25.90
2017-12-16T21:18:32.787Z,26.73
2017-12-16T21:21:01.007Z,39.93
2017-12-16T21:23:29.208Z,37.10
2017-12-16T21:25:58.217Z,30.20
2017-12-16T21:28:26.425Z,31.90
2017-12-16T21:30:55.400Z,32.50
2017-12-16T21:33:23.579Z,27.77
2017-12-16T21:35:51.753Z,27.90
2017-12-16T21:38:19.939Z,39.37
2017-12-16T21:40:48.101Z,29.57
2017-12-16T21:43:16.386Z,34.53
2017-12-16T21:45:44.577Z,30.53
2017-12-16T21:48:12.773Z,29.50
2017-12-16T21:50:40.951Z,31.60
2017-12-16T21:53:09.174Z,28.03
2017-12-16T21:55:37.351Z,31.50
2017-12-16T21:58:05.569Z,27.90
2017-12-16T22:00:33.739Z,26.57
2017-12-16T22:03:01.914Z,21.57
2017-12-16T22:05:30.091Z,16.10
2017-12-16T22:07:58.287Z,16.13
2017-12-16T22:10:26.476Z,14.80
2017-12-16T22:12:55.457Z,21.10
2017-12-16T22:15:23.638Z,14.77
2017-12-16T22:17:52.611Z,23.07
2017-12-16T22:20:20.812Z,16.50
2017-12-16T22:22:49.769Z,18.67
2017-12-16T22:25:17.987Z,15.83
2017-12-16T22:27:46.935Z,18.63
2017-12-16T22:30:15.146Z,15.20
2017-12-16T22:32:44.095Z,14.83
2017-12-16T22:35:12.290Z,18.40
2017-12-16T22:37:40.517Z,17.70
2017-12-16T22:40:08.746Z,15.90
2017-12-16T22:42:36.965Z,14.60
2017-12-16T22:45:05.159Z,9.60
2017-12-16T22:47:33.332Z,12.40
2017-12-16T22:50:01.541Z,13.30
2017-12-16T22:52:29.766Z,12.60
2017-12-16T22:54:57.992Z,13.77
2017-12-16T22:57:26.208Z,13.17
2017-12-16T22:59:54.428Z,17.57
2017-12-16T23:02:22.651Z,14.27
2017-12-16T23:04:51.687Z,11.90
2017-12-16T23:07:19.902Z,12.27
2017-12-16T23:09:48.126Z,9.63
2017-12-16T23:12:16.508Z,10.30
2017-12-16T23:14:44.727Z,11.70
2017-12-16T23:17:13.065Z,10.33
2017-12-16T23:19:41.324Z,9.13
2017-12-16T23:22:09.551Z,10.00
2017-12-16T23:24:37.745Z,8.93
2017-12-16T23:27:06.717Z,18.30
2017-12-16T23:29:34.962Z,18.63
2017-12-16T23:32:03.173Z,22.40
2017-12-16T23:34:31.407Z,18.40
2017-12-16T23:36:59.632Z,16.13
2017-12-16T23:39:27.845Z,12.07
2017-12-16T23:41:56.071Z,14.37
2017-12-16T23:44:24.352Z,12.50
2017-12-16T23:46:52.579Z,12.63
2017-12-16T23:49:20.801Z,13.63
2017-12-16T23:51:48.973Z,17.43
2017-12-16T23:54:17.259Z,13.67
2017-12-16T23:56:45.467Z,13.40
2017-12-16T23:59:13.703Z,15.43
